Time;durP1;ratioP1;P1;durP2;ratioP2;P2;SDS_P1;SDS_P2;PMS_P1;PMS_P2;Temp;Humidity;BMP_temperature;BMP_pressure;BME280_temperature;BME280_humidity;BME280_pressure;Samples;Min_cycle;Max_cycle;Signal;HPM_P1;HPM_P2
2022/01/29 00:00:13;;;;;;;;;42.33;42.33;;;;;1.53;98.12;100710.81;5151631;27;8849;-69
2022/01/29 00:03:10;;;;;;;;;45.67;43.67;;;;;1.56;97.72;100712.22;5157292;27;9578;-70
2022/01/29 00:06:05;;;;;;;;;44.67;42.67;;;;;1.41;98.02;100712.19;5157322;27;8852;-68
2022/01/29 00:09:01;;;;;;;;;44.67;42.67;;;;;1.49;97.98;100715.19;5153015;27;8854;-69
2022/01/29 00:11:56;;;;;;;;;67.00;53.00;;;;;1.47;98.11;100713.84;5136314;27;8891;-69
2022/01/29 00:14:52;;;;;;;;;44.00;42.67;;;;;1.61;97.99;100714.94;5136331;27;8861;-69
2022/01/29 00:17:47;;;;;;;;;50.33;43.33;;;;;1.73;96.65;100715.50;5152801;27;8825;-70
2022/01/29 00:20:43;;;;;;;;;52.67;42.67;;;;;1.68;97.27;100708.13;5122430;27;9572;-69
2022/01/29 00:23:39;;;;;;;;;39.00;34.33;;;;;1.57;97.46;100698.31;5136318;27;9611;-69
2022/01/29 00:26:34;;;;;;;;;41.67;39.33;;;;;1.66;97.54;100701.31;5136056;27;8815;-70
2022/01/29 00:29:34;;;;;;;;;55.00;45.67;;;;;1.74;97.21;100700.78;5144700;27;11503;-70
2022/01/29 00:32:29;;;;;;;;;50.00;43.00;;;;;1.75;97.18;100693.41;5156703;27;8848;-69
2022/01/29 00:35:25;;;;;;;;;33.67;32.67;;;;;1.53;97.45;100699.09;5156734;27;8848;-68
2022/01/29 00:38:20;;;;;;;;;47.00;42.67;;;;;1.76;96.63;100690.41;5156653;27;8838;-68
2022/01/29 00:41:16;;;;;;;;;52.33;46.33;;;;;1.56;97.07;100688.50;5135775;27;9579;-68
2022/01/29 00:44:11;;;;;;;;;54.33;47.67;;;;;1.57;96.92;100681.97;5135548;27;8928;-68
2022/01/29 00:47:07;;;;;;;;;42.00;37.00;;;;;1.77;97.05;100681.16;5121980;27;8839;-68
2022/01/29 00:50:03;;;;;;;;;43.67;40.67;;;;;1.73;95.67;100682.78;5150516;27;8825;-69
2022/01/29 00:52:59;;;;;;;;;49.00;43.67;;;;;1.74;96.49;100683.59;5142414;27;8928;-69
2022/01/29 00:55:54;;;;;;;;;44.67;43.00;;;;;1.80;95.32;100677.06;5156004;27;8813;-70
2022/01/29 00:58:50;;;;;;;;;42.33;38.33;;;;;1.75;95.94;100677.88;5147855;27;8815;-69
2022/01/29 01:01:45;;;;;;;;;45.00;41.00;;;;;1.86;95.21;100682.25;5134037;27;8942;-70
2022/01/29 01:04:41;;;;;;;;;46.67;41.67;;;;;1.85;95.68;100677.06;5135182;27;8847;-69
2022/01/29 01:07:37;;;;;;;;;43.00;42.67;;;;;1.84;95.21;100669.94;5135118;27;8865;-69
2022/01/29 01:10:33;;;;;;;;;38.00;38.00;;;;;1.85;95.15;100669.69;5135364;27;8831;-69
2022/01/29 01:13:30;;;;;;;;;45.00;43.33;;;;;1.85;95.19;100672.44;5135005;27;8829;-69
2022/01/29 01:16:19;;;;;;;;;50.33;45.67;;;;;1.77;95.91;100667.53;5136036;27;8839;-69
2022/01/29 01:19:15;;;;;;;;;50.67;47.00;;;;;1.99;95.65;100669.94;5121659;27;8841;-68
2022/01/29 01:22:10;;;;;;;;;39.67;37.67;;;;;1.85;95.72;100664.25;5134772;27;8883;-69
2022/01/29 01:25:07;;;;;;;;;44.00;39.00;;;;;1.93;95.67;100671.88;5121104;27;11486;-69
2022/01/29 01:28:02;;;;;;;;;41.33;39.67;;;;;1.93;95.27;100665.63;5135052;27;11521;-69
2022/01/29 01:30:58;;;;;;;;;37.00;36.00;;;;;1.86;94.93;100663.16;5134685;27;8900;-69
2022/01/29 01:33:54;;;;;;;;;45.00;41.67;;;;;1.88;94.77;100662.88;5134667;27;8830;-69
2022/01/29 01:36:55;;;;;;;;;41.67;40.00;;;;;1.84;95.28;100662.63;5134615;27;8823;-69
2022/01/29 01:39:50;;;;;;;;;44.00;41.33;;;;;1.94;94.82;100664.50;5133169;27;11498;-70
2022/01/29 01:42:46;;;;;;;;;39.67;38.33;;;;;1.97;93.77;100663.13;5120917;27;11515;-69
2022/01/29 01:45:42;;;;;;;;;46.33;39.33;;;;;1.92;93.51;100662.06;5120634;27;11540;-69
2022/01/29 01:48:38;;;;;;;;;40.00;35.00;;;;;1.97;93.50;100665.88;5137997;27;11638;-69
2022/01/29 01:51:34;;;;;;;;;47.00;42.00;;;;;1.87;92.81;100670.25;5141007;27;11478;-69
2022/01/29 01:54:30;;;;;;;;;33.00;31.67;;;;;2.02;92.90;100668.59;5154983;27;9558;-69
2022/01/29 01:57:25;;;;;;;;;35.67;32.67;;;;;1.81;93.07;100671.31;5155169;27;8805;-69
2022/01/29 02:00:21;;;;;;;;;42.00;40.67;;;;;1.78;93.67;100673.78;5135653;27;11587;-70
2022/01/29 02:03:17;;;;;;;;;40.67;37.00;;;;;1.83;93.30;100671.88;5134151;27;8926;-70
2022/01/29 02:06:13;;;;;;;;;25.67;25.67;;;;;1.85;92.68;100669.69;5134088;27;8858;-70
2022/01/29 02:09:12;;;;;;;;;41.67;38.33;;;;;1.90;92.43;100675.13;5136053;27;8898;-69
2022/01/29 02:12:10;;;;;;;;;35.33;33.33;;;;;1.70;92.82;100691.53;5133614;27;11519;-70
2022/01/29 02:15:10;;;;;;;;;40.00;40.00;;;;;1.74;92.23;100687.13;5120181;27;8811;-68
2022/01/29 02:18:13;;;;;;;;;40.67;38.67;;;;;1.81;91.87;100687.69;5133630;27;8900;-69
2022/01/29 02:21:08;;;;;;;;;36.33;36.00;;;;;1.68;91.44;100689.03;5134096;27;8839;-69
2022/01/29 02:24:04;;;;;;;;;35.00;35.00;;;;;1.70;92.39;100688.78;5133921;27;8827;-69
2022/01/29 02:26:54;;;;;;;;;39.00;38.00;;;;;1.71;91.59;100687.69;5134100;27;8847;-69
2022/01/29 02:29:34;;;;;;;;;38.00;36.00;;;;;1.61;92.56;100691.25;5149376;27;11509;-70
2022/01/29 02:32:30;;;;;;;;;35.00;34.33;;;;;1.60;92.17;100688.75;5154358;27;11551;-69
2022/01/29 02:35:27;;;;;;;;;40.33;38.67;;;;;1.60;92.70;100692.31;5140342;27;8835;-69
2022/01/29 02:38:25;;;;;;;;;37.33;34.33;;;;;1.57;92.13;100690.13;5146086;27;8843;-69
2022/01/29 02:41:23;;;;;;;;;42.33;42.00;;;;;1.49;92.30;100692.56;5133275;27;11482;-69
2022/01/29 02:44:22;;;;;;;;;48.33;43.33;;;;;1.45;92.37;100695.00;5133482;27;8843;-70
2022/01/29 02:47:29;;;;;;;;;40.67;38.67;;;;;1.43;92.57;100696.38;5133819;27;8915;-68
2022/01/29 02:50:24;;;;;;;;;31.33;31.33;;;;;1.48;92.75;100691.75;5119555;27;8827;-68
2022/01/29 02:52:52;;;;;;;;;42.33;40.33;;;;;1.41;92.52;100690.38;5116084;27;8864;-69
2022/01/29 02:55:48;;;;;;;;;38.00;38.00;;;;;1.28;93.86;100689.00;5133296;27;8807;-69
2022/01/29 02:58:44;;;;;;;;;27.00;25.33;;;;;1.34;93.21;100698.81;5134867;27;8819;-68
2022/01/29 03:01:40;;;;;;;;;41.33;38.67;;;;;1.41;92.76;100693.09;5133035;27;8903;-68
2022/01/29 03:04:36;;;;;;;;;38.33;33.67;;;;;1.24;93.37;100694.16;5132642;27;9698;-68
2022/01/29 03:07:32;;;;;;;;;33.33;31.67;;;;;1.24;92.95;100696.88;5119668;27;8873;-68
2022/01/29 03:10:28;;;;;;;;;28.33;28.33;;;;;1.18;93.17;100695.22;5133206;27;8823;-68
2022/01/29 03:13:24;;;;;;;;;37.33;33.33;;;;;1.20;94.00;100692.22;5133032;27;8838;-69
2022/01/29 03:16:19;;;;;;;;;40.33;37.67;;;;;1.12;93.86;100685.41;5132971;27;8815;-69
2022/01/29 03:19:15;;;;;;;;;44.67;42.67;;;;;1.23;93.85;100686.28;5137898;27;9671;-69
2022/01/29 03:22:10;;;;;;;;;34.67;33.67;;;;;1.10;93.16;100687.59;5133098;27;8819;-69
2022/01/29 03:25:07;;;;;;;;;42.33;40.33;;;;;1.18;93.09;100684.34;5135989;27;8823;-69
2022/01/29 03:28:03;;;;;;;;;37.67;33.67;;;;;1.09;93.72;100686.78;5137692;27;8845;-69
2022/01/29 03:30:58;;;;;;;;;38.67;37.00;;;;;1.09;93.25;100688.69;5137152;27;8850;-69
2022/01/29 03:33:54;;;;;;;;;41.00;39.33;;;;;1.05;93.71;100693.00;5123517;27;8822;-70
2022/01/29 03:36:50;;;;;;;;;44.67;38.00;;;;;1.09;92.94;100694.94;5137060;27;8861;-69
2022/01/29 03:39:46;;;;;;;;;53.67;41.00;;;;;0.99;93.75;100691.34;5138994;27;8845;-69
2022/01/29 03:42:47;;;;;;;;;29.33;28.67;;;;;0.87;93.87;100688.88;5136882;27;8903;-68
2022/01/29 03:45:43;;;;;;;;;39.00;38.67;;;;;0.92;94.19;100686.19;5136798;27;8878;-70
2022/01/29 03:48:39;;;;;;;;;35.00;32.67;;;;;0.99;93.72;100680.47;5145075;27;8939;-69
2022/01/29 03:51:34;;;;;;;;;43.67;41.67;;;;;1.03;93.42;100689.75;5136731;27;8827;-70
2022/01/29 03:54:30;;;;;;;;;45.00;44.00;;;;;1.00;93.49;100691.09;5136729;27;8847;-69
2022/01/29 03:57:26;;;;;;;;;34.00;34.00;;;;;1.11;93.69;100694.66;5136691;27;8815;-69
2022/01/29 04:00:21;;;;;;;;;45.33;41.00;;;;;1.06;93.32;100694.66;5137361;27;8891;-69
2022/01/29 04:03:17;;;;;;;;;40.67;38.67;;;;;1.06;93.32;100695.47;5137857;27;8839;-68
2022/01/29 04:06:13;;;;;;;;;31.67;27.00;;;;;1.12;93.58;100696.31;5122775;27;8855;-69
2022/01/29 04:09:11;;;;;;;;;40.33;39.67;;;;;1.09;92.96;100696.84;5124997;27;8834;-68
2022/01/29 04:12:07;;;;;;;;;40.33;37.67;;;;;1.03;94.01;100700.63;5157035;27;8855;-69
2022/01/29 04:15:03;;;;;;;;;31.67;31.00;;;;;1.25;93.54;100695.81;5157075;27;8913;-69
2022/01/29 04:17:58;;;;;;;;;44.33;40.67;;;;;0.97;93.57;100697.06;5157061;27;8817;-70
2022/01/29 04:20:54;;;;;;;;;41.67;41.00;;;;;1.10;93.38;100698.47;5136709;27;8803;-70
2022/01/29 04:23:50;;;;;;;;;51.00;44.33;;;;;1.13;94.45;100697.13;5122410;27;8839;-70
2022/01/29 04:26:45;;;;;;;;;38.33;37.00;;;;;1.10;93.89;100698.47;5136248;27;8811;-70
2022/01/29 04:29:53;;;;;;;;;46.67;43.00;;;;;1.22;94.05;100701.78;5138131;27;8929;-69
2022/01/29 04:35:45;;;;;;;;;38.33;37.00;;;;;1.26;94.08;100696.63;5135875;27;9584;-69
2022/01/29 04:38:40;;;;;;;;;35.00;35.00;;;;;1.29;93.73;100699.59;5152702;27;9616;-69
2022/01/29 04:41:36;;;;;;;;;38.00;38.00;;;;;1.16;94.05;100693.88;5137696;27;8829;-69
2022/01/29 04:44:18;;;;;;;;;40.00;38.33;;;;;1.24;94.76;100701.53;5135816;27;8848;-68
2022/01/29 04:46:46;;;;;;;;;54.33;43.33;;;;;1.15;95.30;100695.78;5118812;27;8895;-68
2022/01/29 04:49:41;;;;;;;;;40.33;38.67;;;;;1.15;95.80;100706.69;5136989;27;8834;-69
2022/01/29 04:52:37;;;;;;;;;44.00;41.00;;;;;1.18;95.59;100702.59;5142661;27;8837;-69
2022/01/29 04:55:56;;;;;;;;;37.00;35.67;;;;;1.26;95.01;100700.16;5156421;27;8839;-69
2022/01/29 04:58:52;;;;;;;;;42.33;36.00;;;;;1.16;94.53;100707.50;5134111;27;8829;-68
2022/01/29 05:01:20;;;;;;;;;32.33;32.33;;;;;1.21;95.68;100707.50;5119883;27;8858;-68
2022/01/29 05:04:15;;;;;;;;;42.33;38.33;;;;;1.16;95.28;100711.03;5135378;27;8837;-68
2022/01/29 05:07:11;;;;;;;;;40.00;40.00;;;;;1.25;94.95;100708.59;5121834;27;8830;-69
2022/01/29 05:10:07;;;;;;;;;41.67;41.67;;;;;1.12;95.93;100718.09;5140561;27;8836;-68
2022/01/29 05:13:06;;;;;;;;;35.33;35.33;;;;;1.27;95.71;100722.78;5152905;27;8829;-69
2022/01/29 05:16:35;;;;;;;;;31.33;30.67;;;;;1.07;95.33;100737.97;5142363;27;9628;-68
2022/01/29 05:29:01;;;;;;;;;34.00;34.00;;;;;1.17;94.90;100742.63;5134952;27;8880;-68
2022/01/29 05:31:59;;;;;;;;;46.33;44.33;;;;;1.04;95.93;100745.84;5121280;27;8811;-68
2022/01/29 05:34:54;;;;;;;;;49.67;45.67;;;;;1.19;96.10;100751.34;5134750;27;8831;-68
2022/01/29 05:37:50;;;;;;;;;48.00;43.33;;;;;1.30;95.35;100750.31;5152249;27;8806;-68
2022/01/29 05:40:46;;;;;;;;;45.33;42.33;;;;;1.29;94.86;100761.47;5141393;27;9606;-69
2022/01/29 05:43:43;;;;;;;;;47.67;45.33;;;;;1.31;95.22;100757.41;5134813;27;8896;-69
2022/01/29 05:46:39;;;;;;;;;47.00;45.00;;;;;1.28;95.43;100770.72;5120263;27;8899;-69
2022/01/29 05:49:34;;;;;;;;;41.33;41.33;;;;;1.39;95.38;100764.25;5125249;27;8841;-69
2022/01/29 05:52:30;;;;;;;;;55.00;48.00;;;;;1.42;95.02;100768.31;5138301;27;8844;-69
2022/01/29 05:55:26;;;;;;;;;26.00;24.00;;;;;1.43;93.77;100772.69;5134342;27;8886;-69
2022/01/29 05:58:21;;;;;;;;;47.00;43.67;;;;;1.42;93.82;100776.50;5134626;27;8862;-69
2022/01/29 06:01:17;;;;;;;;;54.33;44.33;;;;;1.59;94.63;100772.44;5135187;27;8819;-69
2022/01/29 06:04:13;;;;;;;;;48.33;45.00;;;;;1.41;94.40;100775.69;5122667;27;8847;-69
2022/01/29 06:07:08;;;;;;;;;49.67;44.33;;;;;1.53;94.60;100776.25;5152447;27;8864;-69
2022/01/29 06:10:04;;;;;;;;;46.33;39.00;;;;;1.47;94.52;100790.97;5136059;27;8833;-69
2022/01/29 06:13:08;;;;;;;;;45.00;43.33;;;;;1.43;94.67;100783.59;5133845;27;8817;-68
2022/01/29 06:16:04;;;;;;;;;41.00;41.00;;;;;1.55;94.83;100787.72;5154543;27;8869;-68
2022/01/29 06:19:00;;;;;;;;;39.00;37.00;;;;;1.75;94.08;100794.31;5154606;27;8821;-68
2022/01/29 06:21:56;;;;;;;;;44.00;42.67;;;;;1.70;93.84;100797.84;5137011;27;8837;-68
2022/01/29 06:24:51;;;;;;;;;53.00;43.00;;;;;1.61;94.59;100796.72;5136399;27;8831;-68
2022/01/29 06:27:48;;;;;;;;;40.33;38.00;;;;;1.71;94.25;100793.22;5154450;27;9546;-68
2022/01/29 06:30:30;;;;;;;;;40.67;40.67;;;;;1.78;94.73;100788.31;5127173;27;8811;-68
2022/01/29 06:33:26;;;;;;;;;42.00;39.67;;;;;1.77;94.81;100792.16;5134396;27;8873;-69
2022/01/29 06:36:21;;;;;;;;;41.67;41.67;;;;;1.71;95.30;100795.94;5122224;27;8831;-69
2022/01/29 06:39:18;;;;;;;;;46.33;42.33;;;;;1.70;95.19;100803.31;5139576;27;8834;-69
2022/01/29 06:42:13;;;;;;;;;40.00;37.33;;;;;1.74;95.60;100798.94;5136274;27;11639;-69
2022/01/29 06:45:09;;;;;;;;;43.33;43.00;;;;;2.03;95.32;100802.00;5133376;27;11531;-69
2022/01/29 06:48:05;;;;;;;;;33.00;33.00;;;;;1.92;94.70;100803.91;5133219;27;11610;-69
2022/01/29 06:51:01;;;;;;;;;41.33;37.67;;;;;1.95;95.34;100808.81;5131326;27;11476;-69
2022/01/29 06:53:56;;;;;;;;;41.67;39.33;;;;;2.12;94.39;100803.09;5153897;27;11513;-69
2022/01/29 06:56:52;;;;;;;;;50.33;46.00;;;;;2.22;94.16;100802.25;5154019;27;11943;-69
2022/01/29 06:59:48;;;;;;;;;45.67;41.00;;;;;2.24;92.92;100805.56;5146072;27;11496;-69
2022/01/29 07:02:43;;;;;;;;;31.33;30.00;;;;;2.25;93.42;100800.91;5133431;27;11503;-70
2022/01/29 07:05:39;;;;;;;;;40.33;40.00;;;;;2.20;92.78;100807.19;5132904;27;11497;-70
2022/01/29 07:08:38;;;;;;;;;38.67;38.67;;;;;2.16;94.01;100820.56;5132578;27;11565;-70
2022/01/29 07:11:34;;;;;;;;;37.00;36.00;;;;;2.30;93.05;100814.53;5135166;27;11527;-67
2022/01/29 07:14:31;;;;;;;;;43.33;42.00;;;;;2.34;92.72;100821.09;5132876;27;11501;-69
2022/01/29 07:17:27;;;;;;;;;38.67;38.67;;;;;2.39;92.63;100818.38;5120349;27;8811;-68
2022/01/29 07:20:23;;;;;;;;;39.00;38.67;;;;;2.30;93.96;100820.00;5128318;27;11610;-68
2022/01/29 07:23:18;;;;;;;;;34.00;32.33;;;;;2.38;93.08;100820.31;5119803;27;11607;-68
2022/01/29 07:26:14;;;;;;;;;41.67;41.00;;;;;2.46;93.74;100824.41;5152966;27;11500;-69
2022/01/29 07:29:09;;;;;;;;;46.00;41.00;;;;;2.61;93.10;100826.31;5139037;27;11502;-68
2022/01/29 07:32:05;;;;;;;;;43.33;38.33;;;;;2.62;93.57;100830.66;5153234;27;11503;-69
2022/01/29 07:35:02;;;;;;;;;30.25;29.25;;;;;2.59;92.18;100825.75;5150207;27;11481;-69
2022/01/29 07:37:58;;;;;;;;;38.33;38.00;;;;;2.39;93.46;100835.59;5135834;27;11496;-69
2022/01/29 07:40:54;;;;;;;;;32.00;30.25;;;;;2.35;93.46;100839.13;5137657;27;11516;-68
2022/01/29 07:43:50;;;;;;;;;36.75;35.00;;;;;2.56;93.93;100835.31;5133651;27;11506;-68
2022/01/29 07:46:45;;;;;;;;;41.33;40.00;;;;;2.46;93.21;100844.31;5124877;28;11676;-69
2022/01/29 07:49:41;;;;;;;;;44.33;42.33;;;;;2.65;92.27;100849.22;5113181;27;12316;-69
2022/01/29 07:52:15;;;;;;;;;30.25;30.00;;;;;2.52;93.28;100847.84;5133253;27;11519;-70
2022/01/29 07:55:10;;;;;;;;;39.00;39.00;;;;;2.56;93.46;100851.69;5134349;27;11597;-69
2022/01/29 07:58:06;;;;;;;;;31.67;31.67;;;;;2.71;92.26;100846.22;5133676;27;11538;-69
2022/01/29 08:01:03;;;;;;;;;37.25;35.50;;;;;2.82;92.16;100843.47;5129694;27;11536;-69
2022/01/29 08:03:59;;;;;;;;;31.75;31.50;;;;;2.92;92.01;100844.28;5119558;27;11534;-69
2022/01/29 08:06:54;;;;;;;;;32.25;32.25;;;;;2.98;91.49;100854.09;5116926;27;11526;-68
2022/01/29 08:09:50;;;;;;;;;34.75;32.75;;;;;3.01;91.04;100859.00;5133914;27;11502;-69
2022/01/29 08:12:46;;;;;;;;;32.00;29.25;;;;;3.05;91.29;100851.88;5121703;27;11524;-68
2022/01/29 08:15:13;;;;;;;;;29.50;27.25;;;;;2.99;90.77;100855.75;5118583;27;11544;-69
2022/01/29 08:18:09;;;;;;;;;31.50;30.50;;;;;2.97;90.58;100857.91;5120254;27;11514;-67
2022/01/29 08:21:04;;;;;;;;;25.00;25.00;;;;;3.04;90.42;100857.63;5116248;28;12250;-68
2022/01/29 08:24:00;;;;;;;;;22.50;21.25;;;;;2.99;90.00;100860.38;5121666;27;12310;-69
2022/01/29 08:26:56;;;;;;;;;20.00;20.00;;;;;2.86;90.07;100867.22;5120072;27;11628;-69
2022/01/29 08:29:51;;;;;;;;;22.00;21.25;;;;;3.02;90.46;100860.66;5114244;28;11587;-69
2022/01/29 08:32:47;;;;;;;;;11.00;9.00;;;;;2.86;90.60;100880.06;5120115;27;11524;-69
2022/01/29 08:35:43;;;;;;;;;21.25;21.25;;;;;3.01;90.69;100864.47;5123131;27;11597;-66
2022/01/29 08:38:39;;;;;;;;;18.25;18.25;;;;;3.19;89.66;100862.25;5134752;27;11501;-67
2022/01/29 08:41:34;;;;;;;;;24.25;24.25;;;;;3.09;89.65;100860.38;5126137;27;12223;-68
2022/01/29 08:44:30;;;;;;;;;17.50;16.25;;;;;3.04;89.39;100872.09;5151062;27;12277;-68
2022/01/29 08:47:26;;;;;;;;;18.25;18.00;;;;;3.09;89.36;100874.03;5138969;27;11517;-67
2022/01/29 08:49:55;;;;;;;;;12.00;11.50;;;;;3.12;89.57;100870.72;5155201;27;11468;-68
2022/01/29 08:52:51;;;;;;;;;26.75;23.00;;;;;3.13;89.59;100871.53;5151555;27;11461;-68
2022/01/29 08:55:47;;;;;;;;;13.50;13.50;;;;;3.20;89.17;100870.16;5145080;27;11473;-68
2022/01/29 08:58:43;;;;;;;;;23.75;21.00;;;;;3.31;88.89;100873.72;5154351;27;11526;-68
2022/01/29 09:01:39;;;;;;;;;19.75;19.50;;;;;3.22;89.49;100875.34;5135385;27;11561;-67
2022/01/29 09:04:34;;;;;;;;;15.25;15.25;;;;;3.33;88.68;100880.53;5131886;27;11515;-67
2022/01/29 09:07:30;;;;;;;;;19.50;19.50;;;;;3.39;88.80;100872.31;5135380;27;11505;-68
2022/01/29 09:10:27;;;;;;;;;25.25;23.25;;;;;3.42;88.58;100877.22;5121357;27;12287;-68
2022/01/29 09:13:24;;;;;;;;;19.25;19.25;;;;;3.43;88.18;100867.91;5129811;27;11494;-68
2022/01/29 09:16:19;;;;;;;;;27.25;22.25;;;;;3.55;88.23;100873.91;5154048;27;11492;-67
2022/01/29 09:19:15;;;;;;;;;21.50;20.50;;;;;3.58;87.41;100867.84;5132313;27;11492;-68
2022/01/29 09:22:13;;;;;;;;;17.25;17.25;;;;;3.61;87.33;100870.03;5135542;27;11479;-68
2022/01/29 09:25:09;;;;;;;;;14.50;14.50;;;;;3.38;87.51;100874.22;5140378;27;11536;-68
2022/01/29 09:28:07;;;;;;;;;20.00;18.25;;;;;3.52;88.08;100868.97;5129535;27;11504;-68
2022/01/29 09:31:02;;;;;;;;;22.50;22.00;;;;;3.52;87.22;100868.97;5138957;27;12234;-68
2022/01/29 09:33:58;;;;;;;;;7.00;7.00;;;;;3.39;88.37;100881.34;5137074;27;11488;-68
2022/01/29 09:36:54;;;;;;;;;14.75;14.75;;;;;3.47;87.85;100878.03;5139896;27;11471;-69
2022/01/29 09:39:49;;;;;;;;;15.50;15.50;;;;;3.51;87.60;100879.09;5141293;27;11631;-69
2022/01/29 09:42:47;;;;;;;;;13.50;13.50;;;;;3.42;87.20;100882.69;5153955;27;11565;-68
2022/01/29 09:45:43;;;;;;;;;18.25;18.00;;;;;3.42;88.10;100890.88;5121111;27;11481;-69
2022/01/29 09:48:39;;;;;;;;;20.00;19.50;;;;;3.28;88.18;100891.47;5135496;27;11474;-66
2022/01/29 09:51:38;;;;;;;;;13.25;13.25;;;;;3.57;87.76;100888.09;5138725;27;11462;-68
2022/01/29 09:54:34;;;;;;;;;22.00;20.25;;;;;3.53;87.63;100896.06;5149299;27;12300;-68
2022/01/29 09:57:29;;;;;;;;;18.50;15.50;;;;;3.54;88.04;100896.88;5151671;27;11596;-68
2022/01/29 10:00:26;;;;;;;;;25.50;25.00;;;;;3.59;87.12;100900.38;5154659;27;11475;-68
2022/01/29 10:03:22;;;;;;;;;17.00;17.00;;;;;3.52;87.13;100896.31;5140945;27;11522;-68
2022/01/29 10:06:19;;;;;;;;;16.50;16.50;;;;;3.63;86.64;100897.94;5150010;27;11470;-68
2022/01/29 10:09:33;;;;;;;;;16.25;16.00;;;;;3.60;86.17;100902.06;5133798;27;11510;-68
2022/01/29 10:12:31;;;;;;;;;19.00;16.75;;;;;3.68;86.56;100903.38;5134687;27;12296;-68
2022/01/29 10:15:30;;;;;;;;;22.00;20.25;;;;;3.73;85.59;100910.75;5139998;27;11502;-68
2022/01/29 10:18:26;;;;;;;;;18.50;18.50;;;;;3.79;86.13;100915.91;5154692;27;11589;-68
2022/01/29 10:21:24;;;;;;;;;16.00;16.00;;;;;3.65;85.76;100923.06;5123453;27;12354;-68
2022/01/29 10:24:21;;;;;;;;;21.50;19.75;;;;;3.68;86.25;100911.59;5133661;27;11456;-68
2022/01/29 10:27:17;;;;;;;;;15.75;15.75;;;;;3.77;86.51;100922.78;5149248;27;11463;-68
2022/01/29 10:30:12;;;;;;;;;11.25;11.25;;;;;3.71;85.46;100923.88;5145254;27;11542;-69
2022/01/29 10:33:19;;;;;;;;;19.00;19.00;;;;;3.66;86.24;100926.63;5127100;27;11482;-68
2022/01/29 10:36:16;;;;;;;;;18.00;17.50;;;;;3.70;85.00;100931.28;5151264;27;11482;-68
2022/01/29 10:39:12;;;;;;;;;13.00;13.00;;;;;3.76;84.49;100921.13;5150642;27;11494;-67
2022/01/29 10:42:35;;;;;;;;;15.75;14.50;;;;;3.75;85.36;100924.94;5139489;27;12264;-69
2022/01/29 10:45:34;;;;;;;;;17.50;17.50;;;;;3.64;85.66;100924.19;5139797;27;11606;-68
2022/01/29 10:48:42;;;;;;;;;18.50;18.50;;;;;3.63;86.53;100917.88;5149865;27;11498;-69
2022/01/29 10:51:37;;;;;;;;;16.00;16.00;;;;;3.63;86.50;100933.47;5153278;27;11605;-69
2022/01/29 10:54:37;;;;;;;;;11.75;11.75;;;;;3.77;86.06;100928.25;5154058;27;11487;-69
2022/01/29 10:57:38;;;;;;;;;15.00;13.00;;;;;3.86;85.59;100932.03;5140241;27;11439;-68
2022/01/29 11:00:35;;;;;;;;;8.75;8.75;;;;;3.81;85.00;100934.78;5132408;27;11616;-68
2022/01/29 11:03:31;;;;;;;;;9.50;9.50;;;;;3.81;85.35;100934.78;5145759;27;11498;-68
2022/01/29 11:06:33;;;;;;;;;6.00;6.00;;;;;3.94;84.81;100934.19;5141865;27;11419;-68
2022/01/29 11:09:30;;;;;;;;;10.50;10.50;;;;;3.89;84.37;100934.19;5119226;27;11532;-68
2022/01/29 11:12:28;;;;;;;;;19.75;19.75;;;;;3.92;84.39;100933.66;5142436;27;11477;-68
2022/01/29 11:15:25;;;;;;;;;10.25;9.00;;;;;3.75;85.08;100936.72;5119027;27;11535;-69
2022/01/29 11:18:25;;;;;;;;;15.25;13.00;;;;;3.83;84.61;100927.94;5136960;27;12210;-69
2022/01/29 11:21:21;;;;;;;;;8.00;8.00;;;;;3.84;85.13;100940.53;5150956;27;12225;-68
2022/01/29 11:24:23;;;;;;;;;7.75;7.75;;;;;3.85;84.39;100941.34;5142588;27;10957;-69
2022/01/29 11:27:37;;;;;;;;;15.00;14.00;;;;;3.77;84.13;100941.91;5146512;27;11425;-69
2022/01/29 11:30:33;;;;;;;;;12.25;12.25;;;;;3.79;84.76;100942.44;5146194;27;11478;-68
2022/01/29 11:33:29;;;;;;;;;8.75;8.25;;;;;3.83;84.49;100946.25;5132580;27;11525;-68
2022/01/29 11:36:48;;;;;;;;;6.50;6.50;;;;;3.85;83.85;100952.28;5133090;27;11512;-68
2022/01/29 11:39:44;;;;;;;;;13.00;13.00;;;;;3.69;85.04;100948.78;5118834;27;11462;-67
2022/01/29 11:42:15;;;;;;;;;16.75;12.50;;;;;3.69;84.92;100954.25;5118117;27;11486;-68
2022/01/29 11:44:45;;;;;;;;;16.75;14.50;;;;;3.81;84.66;100959.41;5136876;27;11573;-69
2022/01/29 11:47:40;;;;;;;;;11.00;11.00;;;;;3.79;84.61;100953.41;5132638;27;11448;-69
2022/01/29 11:50:26;;;;;;;;;8.50;8.50;;;;;3.75;84.66;100958.59;5140233;27;11462;-68
2022/01/29 11:53:03;;;;;;;;;11.00;11.00;;;;;3.74;84.98;100954.22;5138770;27;11489;-68
2022/01/29 11:55:52;;;;;;;;;11.00;8.75;;;;;3.66;85.10;100965.75;5119673;27;11537;-68
2022/01/29 11:58:21;;;;;;;;;14.50;14.50;;;;;3.69;84.14;100969.84;5137821;27;11469;-69
2022/01/29 12:00:49;;;;;;;;;11.00;11.00;;;;;3.65;85.07;100966.03;5134906;27;11565;-68
2022/01/29 12:03:45;;;;;;;;;9.25;9.25;;;;;3.72;84.98;100967.38;5125658;27;12187;-68
2022/01/29 12:07:04;;;;;;;;;10.00;10.00;;;;;3.80;84.54;100965.97;5136281;27;11489;-69
2022/01/29 12:10:04;;;;;;;;;14.00;12.00;;;;;3.75;84.51;100961.31;5135110;27;11442;-68
2022/01/29 12:12:37;;;;;;;;;10.50;10.50;;;;;3.81;84.37;100971.16;5137178;27;11479;-69
2022/01/29 12:15:37;;;;;;;;;13.75;12.75;;;;;3.75;84.33;100968.72;5136177;27;11457;-70
2022/01/29 12:18:35;;;;;;;;;14.00;14.00;;;;;3.67;84.93;100967.38;5136929;27;12240;-70
2022/01/29 12:21:33;;;;;;;;;16.50;16.00;;;;;3.60;85.32;100972.31;5134008;27;12271;-70
2022/01/29 12:24:28;;;;;;;;;18.25;18.25;;;;;3.63;85.74;100979.97;5125970;27;11478;-70
2022/01/29 12:27:42;;;;;;;;;11.75;11.25;;;;;3.60;85.20;100986.84;5136459;27;11508;-70
2022/01/29 12:30:40;;;;;;;;;12.50;10.75;;;;;3.54;86.00;100987.13;5137331;27;11461;-68
2022/01/29 12:33:35;;;;;;;;;8.75;8.75;;;;;3.61;86.22;100983.00;5136190;27;11445;-68
2022/01/29 12:36:34;;;;;;;;;13.25;11.00;;;;;3.57;85.90;100990.09;5138748;27;11420;-69
2022/01/29 12:39:29;;;;;;;;;13.75;13.75;;;;;3.55;85.92;101003.25;5147791;27;11446;-69
2022/01/29 12:42:31;;;;;;;;;16.00;15.75;;;;;3.47;86.57;101001.06;5127831;27;11482;-69
2022/01/29 12:45:31;;;;;;;;;17.00;16.50;;;;;3.45;86.85;101016.09;5135778;27;11528;-69
2022/01/29 12:48:27;;;;;;;;;13.75;13.75;;;;;3.52;86.39;101011.97;5133773;27;11580;-69
2022/01/29 12:51:23;;;;;;;;;16.50;16.50;;;;;3.50;87.05;101019.66;5121760;27;11614;-68
2022/01/29 12:54:19;;;;;;;;;12.50;12.50;;;;;3.38;87.10;101021.88;5121576;27;11569;-68
2022/01/29 12:57:14;;;;;;;;;20.25;18.00;;;;;3.42;86.85;101028.41;5147087;27;11498;-68
2022/01/29 13:00:16;;;;;;;;;18.00;18.00;;;;;3.30;86.85;101030.63;5138761;27;11494;-69
2022/01/29 13:03:13;;;;;;;;;15.50;14.00;;;;;3.33;87.01;101032.78;5143331;27;11477;-71
2022/01/29 13:06:10;;;;;;;;;14.75;14.75;;;;;3.23;88.01;101038.28;5156208;27;11441;-70
2022/01/29 13:09:18;;;;;;;;;24.75;24.75;;;;;3.33;87.44;101028.16;5140094;27;12288;-69
2022/01/29 13:11:47;;;;;;;;;71.33;59.00;;;;;3.33;87.71;101035.53;5141558;27;11593;-69
2022/01/29 13:14:18;;;;;;;;;24.75;24.75;;;;;3.38;87.91;101034.72;5137966;27;8835;-68
2022/01/29 13:17:16;;;;;;;;;32.00;28.75;;;;;3.31;88.09;101045.94;5155543;27;11469;-69
2022/01/29 13:20:14;;;;;;;;;18.25;18.25;;;;;3.23;88.21;101049.22;5155757;27;11481;-69
2022/01/29 13:23:10;;;;;;;;;36.25;36.25;;;;;3.29;88.33;101048.09;5141861;27;11497;-69
2022/01/29 13:26:20;;;;;;;;;14.50;14.50;;;;;3.32;88.77;101047.56;5155627;27;12344;-69
2022/01/29 13:28:59;;;;;;;;;70.67;57.33;;;;;3.32;88.09;101050.31;5156524;27;11497;-69
2022/01/29 13:31:28;;;;;;;;;18.75;18.75;;;;;3.30;88.26;101063.44;5142100;27;11530;-70
2022/01/29 13:34:29;;;;;;;;;8.00;7.00;;;;;3.15;89.29;101058.78;5155167;27;11504;-69
2022/01/29 13:37:27;;;;;;;;;11.75;11.75;;;;;3.16;90.11;101057.69;5153234;27;12270;-68
2022/01/29 13:40:47;;;;;;;;;15.75;15.75;;;;;3.24;89.40;101062.59;5141568;27;11522;-70
2022/01/29 13:43:43;;;;;;;;;19.75;16.75;;;;;3.15;90.12;101060.69;5138007;27;11483;-70